Time;durP1;ratioP1;P1;durP2;ratioP2;P2;SDS_P1;SDS_P2;PMS_P1;PMS_P2;Temp;Humidity;BMP_temperature;BMP_pressure;BME280_temperature;BME280_humidity;BME280_pressure;Samples;Min_cycle;Max_cycle;Signal;HPM_P1;HPM_P2
2023/04/23 00:02:13;;;;;;;;;;;;;;;14.01;59.21;99776.72;4974809;28;6800;-75
2023/04/23 00:04:51;;;;;;;;;;;;;;;13.99;58.53;99780.94;4977527;28;7053;-75
2023/04/23 00:07:22;;;;;;;;;;;;;;;13.96;59.20;99780.03;4977818;28;6781;-75
2023/04/23 00:09:55;;;;;;;;;;;;;;;13.94;59.00;99771.38;5000046;28;7192;-75
2023/04/23 00:12:21;;;;;;;;;;;;;;;13.93;58.75;99774.78;4972706;28;6796;-75
2023/04/23 00:14:47;;;;;;;;;;;;;;;13.92;59.45;99779.09;4977820;28;7262;-75
2023/04/23 00:17:13;;;;;;;;;;;;;;;13.93;59.66;99774.78;4962319;28;8231;-75
2023/04/23 00:19:39;;;;;;;;;;;;;;;13.91;59.07;99781.59;4982336;28;7254;-75
2023/04/23 00:22:05;;;;;;;;;;;;;;;13.88;59.26;99775.56;4983126;28;6776;-75
2023/04/23 00:24:32;;;;;;;;;;;;;;;13.89;59.30;99773.84;4982244;28;6807;-75
2023/04/23 00:26:58;;;;;;;;;;;;;;;13.86;59.39;99773.78;4978336;28;7416;-75
2023/04/23 00:29:24;;;;;;;;;;;;;;;13.86;59.29;99771.19;4982715;28;7242;-75
2023/04/23 00:31:50;;;;;;;;;;;;;;;13.84;58.80;99767.72;4975509;28;7031;-75
2023/04/23 00:34:15;;;;;;;;;;;;;;;13.80;58.43;99768.44;4981342;28;7226;-75
2023/04/23 00:36:41;;;;;;;;;;;;;;;13.74;59.15;99767.50;4984600;28;7848;-75
2023/04/23 00:39:06;;;;;;;;;;;;;;;13.68;58.59;99762.16;4979772;28;7119;-75
2023/04/23 00:41:33;;;;;;;;;;;;;;;13.61;58.59;99762.84;4978499;28;6768;-75
2023/04/23 00:43:59;;;;;;;;;;;;;;;13.53;58.72;99754.06;4979733;28;6808;-75
2023/04/23 00:46:28;;;;;;;;;;;;;;;13.44;58.28;99746.94;4976444;28;7197;-75
2023/04/23 00:48:54;;;;;;;;;;;;;;;13.37;58.96;99740.75;4977815;28;7276;-75
2023/04/23 00:51:23;;;;;;;;;;;;;;;13.30;58.80;99741.44;4977874;28;6835;-75
2023/04/23 00:53:49;;;;;;;;;;;;;;;13.23;59.10;99742.09;4984967;28;7345;-75
2023/04/23 00:56:17;;;;;;;;;;;;;;;13.15;59.59;99742.78;4982981;28;6776;-75
2023/04/23 00:58:44;;;;;;;;;;;;;;;13.10;59.22;99740.91;4997127;28;7166;-75
2023/04/23 01:01:11;;;;;;;;;;;;;;;13.04;59.64;99728.75;4980187;28;8429;-75
2023/04/23 01:03:39;;;;;;;;;;;;;;;12.99;59.01;99738.94;4995426;28;6792;-75
2023/04/23 01:06:05;;;;;;;;;;;;;;;12.95;59.74;99734.50;4975347;28;6979;-75
2023/04/23 01:08:32;;;;;;;;;;;;;;;12.90;58.77;99739.53;4964712;28;6967;-75
2023/04/23 01:10:59;;;;;;;;;;;;;;;12.87;59.53;99736.88;4994871;28;6792;-75
2023/04/23 01:13:28;;;;;;;;;;;;;;;12.83;59.54;99727.31;4981055;28;6997;-75
2023/04/23 01:15:55;;;;;;;;;;;;;;;12.80;59.67;99734.09;4978997;28;7055;-75
2023/04/23 01:18:22;;;;;;;;;;;;;;;12.78;59.22;99732.31;4995098;28;7207;-75
2023/04/23 01:20:48;;;;;;;;;;;;;;;12.77;59.86;99725.44;4980458;28;7280;-75
2023/04/23 01:23:15;;;;;;;;;;;;;;;12.76;59.91;99726.28;4962498;28;6981;-76
2023/04/23 01:25:42;;;;;;;;;;;;;;;12.77;60.08;99722.03;4976276;28;6780;-75
2023/04/23 01:28:09;;;;;;;;;;;;;;;12.81;60.25;99725.56;4997273;28;6986;-75
2023/04/23 01:30:35;;;;;;;;;;;;;;;12.86;59.86;99718.81;4995585;28;6982;-75
2023/04/23 01:33:03;;;;;;;;;;;;;;;12.91;60.76;99723.25;4981515;28;6772;-75
2023/04/23 01:35:29;;;;;;;;;;;;;;;12.96;59.70;99722.53;4979406;28;7169;-75
2023/04/23 01:38:01;;;;;;;;;;;;;;;12.99;60.13;99720.91;5011802;28;8451;-75
2023/04/23 01:40:27;;;;;;;;;;;;;;;13.02;60.83;99715.84;4996840;28;6950;-75
2023/04/23 01:42:53;;;;;;;;;;;;;;;13.05;60.94;99723.63;4979150;28;7817;-75
2023/04/23 01:45:19;;;;;;;;;;;;;;;13.09;60.21;99722.03;4975877;28;6792;-75
2023/04/23 01:47:46;;;;;;;;;;;;;;;13.11;59.81;99717.78;4979979;28;7894;-75
2023/04/23 01:50:13;;;;;;;;;;;;;;;13.14;60.34;99719.56;4978086;28;7714;-75
2023/04/23 01:52:40;;;;;;;;;;;;;;;13.19;59.79;99718.00;4977884;28;6968;-75
2023/04/23 01:55:05;;;;;;;;;;;;;;;13.21;60.25;99711.19;4977662;28;6859;-75
2023/04/23 01:57:31;;;;;;;;;;;;;;;13.24;59.78;99718.13;4981516;28;7869;-75
2023/04/23 02:00:10;;;;;;;;;;;;;;;13.25;59.90;99714.72;4977471;28;6788;-75
2023/04/23 02:02:37;;;;;;;;;;;;;;;13.24;59.66;99710.41;4975499;28;11144;-75
2023/04/23 02:05:05;;;;;;;;;;;;;;;13.24;60.37;99712.97;4983084;28;6808;-75
2023/04/23 02:07:35;;;;;;;;;;;;;;;13.25;60.63;99713.00;5008081;28;6808;-75
2023/04/23 02:10:02;;;;;;;;;;;;;;;13.29;60.15;99719.09;4961818;28;6991;-75
2023/04/23 02:12:28;;;;;;;;;;;;;;;13.32;60.85;99706.31;4993763;28;7258;-75
2023/04/23 02:14:54;;;;;;;;;;;;;;;13.35;60.53;99701.25;4991660;28;8167;-75
2023/04/23 02:17:21;;;;;;;;;;;;;;;13.36;60.47;99697.84;4978975;28;7392;-81
2023/04/23 02:19:48;;;;;;;;;;;;;;;13.36;60.19;99695.28;4979163;28;6811;-80
2023/04/23 02:22:16;;;;;;;;;;;;;;;13.35;59.45;99698.69;4976173;28;7129;-79
2023/04/23 02:24:43;;;;;;;;;;;;;;;13.33;59.70;99696.06;4985753;28;7039;-81
2023/04/23 02:27:09;;;;;;;;;;;;;;;13.30;59.34;99689.97;4998000;28;8450;-80
2023/04/23 02:29:35;;;;;;;;;;;;;;;13.28;59.87;99686.47;4990760;28;6981;-82
2023/04/23 02:32:03;;;;;;;;;;;;;;;13.25;60.08;99691.56;4994157;28;6979;-81
2023/04/23 02:34:29;;;;;;;;;;;;;;;13.23;60.25;99693.19;4992148;28;7305;-80
2023/04/23 02:36:54;;;;;;;;;;;;;;;13.22;60.04;99686.31;4978704;28;6832;-80
2023/04/23 02:39:20;;;;;;;;;;;;;;;13.19;59.98;99682.84;4979785;28;6956;-74
2023/04/23 02:41:46;;;;;;;;;;;;;;;13.20;59.60;99681.16;5018813;28;6824;-73
2023/04/23 02:44:11;;;;;;;;;;;;;;;13.23;60.47;99677.75;4975994;28;6760;-72
2023/04/23 02:46:37;;;;;;;;;;;;;;;13.27;59.98;99685.59;4980827;28;6764;-74
2023/04/23 02:49:05;;;;;;;;;;;;;;;13.32;60.63;99678.88;4968441;28;6986;-73
2023/04/23 02:51:31;;;;;;;;;;;;;;;13.40;60.76;99683.34;5019654;28;7010;-72
2023/04/23 02:53:57;;;;;;;;;;;;;;;13.46;60.11;99678.38;4984083;28;6857;-72
2023/04/23 02:56:23;;;;;;;;;;;;;;;13.53;60.00;99676.84;4985133;28;7294;-72
2023/04/23 02:58:49;;;;;;;;;;;;;;;13.61;60.24;99676.19;4968384;28;8008;-73
2023/04/23 03:01:15;;;;;;;;;;;;;;;13.69;60.67;99684.09;4978855;28;7180;-73
2023/04/23 03:03:41;;;;;;;;;;;;;;;13.78;60.06;99680.00;4981458;28;6988;-72
2023/04/23 03:06:07;;;;;;;;;;;;;;;13.85;59.58;99685.31;4981139;28;7323;-73
2023/04/23 03:08:33;;;;;;;;;;;;;;;13.92;59.67;99682.88;4971170;28;6768;-71
2023/04/23 03:10:59;;;;;;;;;;;;;;;13.96;59.76;99676.97;4981250;28;6870;-71
2023/04/23 03:13:25;;;;;;;;;;;;;;;14.02;59.56;99689.97;4979893;28;6907;-74
2023/04/23 03:15:53;;;;;;;;;;;;;;;14.09;59.84;99678.09;4979442;28;7099;-73
2023/04/23 03:18:19;;;;;;;;;;;;;;;14.15;59.85;99691.13;4979536;28;6788;-76
2023/04/23 03:20:45;;;;;;;;;;;;;;;14.23;59.91;99680.97;4977885;28;6999;-74
2023/04/23 03:23:11;;;;;;;;;;;;;;;14.29;60.56;99682.00;4981385;28;6768;-72
2023/04/23 03:25:36;;;;;;;;;;;;;;;14.36;60.13;99687.28;4979991;28;6976;-72
2023/04/23 03:28:02;;;;;;;;;;;;;;;14.42;60.10;99677.94;4978093;28;6780;-75
2023/04/23 03:30:28;;;;;;;;;;;;;;;14.47;59.37;99672.03;4983267;28;7135;-72
2023/04/23 03:32:56;;;;;;;;;;;;;;;14.54;59.47;99676.50;5013212;28;7415;-72
2023/04/23 03:35:23;;;;;;;;;;;;;;;14.59;59.66;99680.00;5002449;28;6988;-73
2023/04/23 03:37:49;;;;;;;;;;;;;;;14.65;59.71;99679.25;4979362;28;6977;-73
2023/04/23 03:40:14;;;;;;;;;;;;;;;14.70;59.45;99667.34;4978656;28;7183;-73
2023/04/23 03:42:40;;;;;;;;;;;;;;;14.73;59.36;99672.59;4961710;28;6944;-72
2023/04/23 03:45:07;;;;;;;;;;;;;;;14.78;59.80;99675.25;4970623;28;7026;-74
2023/04/23 03:47:32;;;;;;;;;;;;;;;14.81;59.41;99673.59;4980160;28;6788;-72
2023/04/23 03:49:58;;;;;;;;;;;;;;;14.85;59.78;99666.78;4966541;28;7137;-73
2023/04/23 03:52:23;;;;;;;;;;;;;;;14.89;59.42;99665.16;4992933;28;7252;-73
2023/04/23 03:54:49;;;;;;;;;;;;;;;14.91;59.34;99669.47;4984191;28;7230;-74
2023/04/23 03:57:15;;;;;;;;;;;;;;;14.94;59.29;99666.97;5001259;28;6967;-74
2023/04/23 03:59:41;;;;;;;;;;;;;;;14.97;58.94;99655.84;4977184;28;7739;-76
2023/04/23 04:02:06;;;;;;;;;;;;;;;14.98;59.40;99657.56;5004336;28;7141;-72
2023/04/23 04:04:32;;;;;;;;;;;;;;;15.02;59.58;99656.78;4977142;28;6974;-75
2023/04/23 04:07:01;;;;;;;;;;;;;;;15.05;59.08;99658.53;4979934;28;7213;-72
2023/04/23 04:09:28;;;;;;;;;;;;;;;15.07;58.84;99657.75;4983614;28;7350;-76
2023/04/23 04:11:54;;;;;;;;;;;;;;;15.11;59.44;99659.53;4961592;28;6999;-73
2023/04/23 04:14:21;;;;;;;;;;;;;;;15.13;59.31;99656.97;4989431;28;6998;-75
2023/04/23 04:16:47;;;;;;;;;;;;;;;15.17;59.31;99663.91;4986731;28;7261;-73
2023/04/23 04:19:12;;;;;;;;;;;;;;;15.19;59.20;99659.66;5001405;28;7053;-74
2023/04/23 04:21:38;;;;;;;;;;;;;;;15.23;58.76;99663.16;4963537;28;8463;-76
2023/04/23 04:24:04;;;;;;;;;;;;;;;15.24;58.79;99662.31;4995194;28;7146;-73
2023/04/23 04:26:33;;;;;;;;;;;;;;;15.27;58.88;99664.97;4975540;28;7388;-76
2023/04/23 04:29:03;;;;;;;;;;;;;;;15.30;58.49;99666.69;4965693;28;8457;-73
2023/04/23 04:31:29;;;;;;;;;;;;;;;15.33;58.79;99666.78;4982410;28;7012;-72
2023/04/23 04:33:56;;;;;;;;;;;;;;;15.35;58.74;99662.50;5014317;28;7076;-74
2023/04/23 04:36:24;;;;;;;;;;;;;;;15.38;58.79;99676.31;4981974;28;6815;-73
2023/04/23 04:38:50;;;;;;;;;;;;;;;15.40;58.29;99672.06;4978014;28;7056;-73
2023/04/23 04:41:20;;;;;;;;;;;;;;;15.42;58.78;99669.50;4979773;28;8358;-72
2023/04/23 04:43:47;;;;;;;;;;;;;;;15.45;58.65;99676.41;4970295;28;7350;-73
2023/04/23 04:46:14;;;;;;;;;;;;;;;15.47;58.65;99672.16;4978466;28;6808;-72
2023/04/23 04:48:40;;;;;;;;;;;;;;;15.49;58.18;99665.31;4986170;28;7242;-74
2023/04/23 04:51:06;;;;;;;;;;;;;;;15.53;58.23;99672.25;4978968;28;6958;-73
2023/04/23 04:53:32;;;;;;;;;;;;;;;15.57;58.01;99676.63;4979394;28;7455;-74
2023/04/23 04:55:57;;;;;;;;;;;;;;;15.58;58.34;99667.16;4963761;28;8068;-73
2023/04/23 04:58:23;;;;;;;;;;;;;;;15.60;57.91;99668.94;4961838;28;7287;-72
2023/04/23 05:00:50;;;;;;;;;;;;;;;15.63;57.91;99666.38;4974810;28;7470;-74
2023/04/23 05:03:20;;;;;;;;;;;;;;;15.65;57.83;99667.28;4966410;28;7046;-73
2023/04/23 05:05:47;;;;;;;;;;;;;;;15.67;57.87;99665.59;4992448;28;7261;-75
2023/04/23 05:08:15;;;;;;;;;;;;;;;15.72;58.39;99669.94;4974183;28;6855;-74
2023/04/23 05:10:42;;;;;;;;;;;;;;;15.74;58.39;99666.56;4978929;28;6966;-78
2023/04/23 05:13:09;;;;;;;;;;;;;;;15.76;58.17;99658.84;4979162;28;6910;-81
2023/04/23 05:15:34;;;;;;;;;;;;;;;15.80;58.11;99671.81;4978373;28;8542;-80
2023/04/23 05:18:03;;;;;;;;;;;;;;;15.83;58.52;99666.69;4965594;28;7040;-78
2023/04/23 05:20:29;;;;;;;;;;;;;;;15.88;58.21;99668.47;4976743;28;7395;-78
2023/04/23 05:22:54;;;;;;;;;;;;;;;15.91;58.00;99672.00;4978782;28;7647;-79
2023/04/23 05:25:20;;;;;;;;;;;;;;;15.95;58.32;99670.31;4994415;28;7009;-81
2023/04/23 05:27:46;;;;;;;;;;;;;;;15.98;57.79;99677.25;5012657;28;6958;-78
2023/04/23 05:30:12;;;;;;;;;;;;;;;16.00;57.87;99679.03;4967593;28;7313;-79
2023/04/23 05:32:38;;;;;;;;;;;;;;;16.05;57.90;99677.38;4975031;28;7619;-82
2023/04/23 05:35:05;;;;;;;;;;;;;;;16.08;57.75;99668.78;4980265;28;7123;-79
2023/04/23 05:37:30;;;;;;;;;;;;;;;16.12;57.57;99672.28;4998098;28;6800;-82
2023/04/23 05:39:57;;;;;;;;;;;;;;;16.16;57.75;99668.88;4986254;28;6987;-81
2023/04/23 05:42:22;;;;;;;;;;;;;;;16.20;57.52;99671.53;4978641;28;7044;-80
2023/04/23 05:44:48;;;;;;;;;;;;;;;16.24;57.93;99669.84;4993564;28;7920;-80
2023/04/23 05:47:14;;;;;;;;;;;;;;;16.29;57.71;99662.16;4978086;28;6956;-81
2023/04/23 05:49:40;;;;;;;;;;;;;;;16.32;57.36;99665.66;4980281;28;8663;-81
2023/04/23 05:52:06;;;;;;;;;;;;;;;16.36;57.41;99663.97;4997014;28;8118;-75
2023/04/23 05:54:31;;;;;;;;;;;;;;;16.37;57.26;99658.84;4981916;28;6764;-78
2023/04/23 05:56:57;;;;;;;;;;;;;;;16.38;56.75;99662.28;4978742;28;7238;-81
2023/04/23 05:59:23;;;;;;;;;;;;;;;16.35;57.09;99665.69;4972863;28;6952;-81
2023/04/23 06:01:49;;;;;;;;;;;;;;;16.33;56.61;99667.38;4973932;28;10047;-77
2023/04/23 06:04:15;;;;;;;;;;;;;;;16.29;56.55;99670.81;4993596;28;7183;-78
2023/04/23 06:06:42;;;;;;;;;;;;;;;16.24;57.22;99673.31;4976015;28;6910;-80
2023/04/23 06:09:08;;;;;;;;;;;;;;;16.20;56.79;99676.69;4975642;28;6792;-75
2023/04/23 06:11:35;;;;;;;;;;;;;;;16.18;57.13;99678.41;4974400;28;6781;-78
2023/04/23 06:14:01;;;;;;;;;;;;;;;16.18;56.63;99677.56;4999307;28;7005;-80
2023/04/23 06:16:27;;;;;;;;;;;;;;;16.17;56.85;99674.09;4978599;28;6950;-80
2023/04/23 06:18:55;;;;;;;;;;;;;;;16.18;57.19;99678.41;4980397;28;6768;-78
2023/04/23 06:21:22;;;;;;;;;;;;;;;16.20;56.67;99681.88;4981028;28;6819;-78
2023/04/23 06:23:48;;;;;;;;;;;;;;;16.21;57.03;99670.69;4980920;28;7026;-80
2023/04/23 06:26:14;;;;;;;;;;;;;;;16.23;57.20;99674.19;4992266;28;7158;-77
2023/04/23 06:28:42;;;;;;;;;;;;;;;16.27;56.95;99669.03;4984096;28;7398;-78
2023/04/23 06:31:08;;;;;;;;;;;;;;;16.28;56.79;99673.34;4967599;28;6884;-82
2023/04/23 06:33:36;;;;;;;;;;;;;;;16.28;57.10;99669.06;4993029;28;6780;-79
2023/04/23 06:36:08;;;;;;;;;;;;;;;16.31;57.23;99674.25;4993291;28;6934;-79
2023/04/23 06:38:34;;;;;;;;;;;;;;;16.36;56.97;99663.97;4963746;28;7345;-86
2023/04/23 06:40:59;;;;;;;;;;;;;;;16.43;57.29;99658.03;5013571;28;6977;-80
2023/04/23 06:43:25;;;;;;;;;;;;;;;16.53;57.00;99656.41;5000543;28;6970;-81
2023/04/23 06:45:51;;;;;;;;;;;;;;;16.63;57.59;99654.81;5014895;28;6831;-79
2023/04/23 06:48:17;;;;;;;;;;;;;;;16.73;57.78;99660.94;4985569;28;6772;-80
2023/04/23 06:50:43;;;;;;;;;;;;;;;16.83;57.24;99657.59;4996058;28;8542;-82
2023/04/23 06:53:09;;;;;;;;;;;;;;;16.93;57.24;99643.91;4976029;28;6788;-81
2023/04/23 06:55:35;;;;;;;;;;;;;;;17.03;57.25;99655.25;4987189;28;7127;-82
2023/04/23 06:58:00;;;;;;;;;;;;;;;17.12;57.01;99638.94;4984331;28;6946;-79
2023/04/23 07:00:26;;;;;;;;;;;;;;;17.20;56.76;99646.78;5016915;28;6883;-81
2023/04/23 07:02:51;;;;;;;;;;;;;;;17.29;56.42;99656.34;4978150;28;8032;-81
2023/04/23 07:05:17;;;;;;;;;;;;;;;17.37;56.31;99643.44;4995208;28;7109;-79
2023/04/23 07:07:44;;;;;;;;;;;;;;;17.45;56.36;99645.28;4982069;28;7202;-79
2023/04/23 07:10:11;;;;;;;;;;;;;;;17.57;56.19;99635.84;4974958;28;7023;-79
2023/04/23 07:12:38;;;;;;;;;;;;;;;17.66;56.19;99635.03;4983873;28;6780;-81
2023/04/23 07:15:05;;;;;;;;;;;;;;;17.73;55.88;99635.09;4957622;28;7142;-80
2023/04/23 07:17:32;;;;;;;;;;;;;;;17.80;55.80;99632.53;4982666;28;6812;-83
2023/04/23 07:19:57;;;;;;;;;;;;;;;17.87;55.51;99623.94;4998378;28;6966;-79
2023/04/23 07:22:25;;;;;;;;;;;;;;;17.94;55.27;99633.50;4978505;28;6768;-82
2023/04/23 07:24:51;;;;;;;;;;;;;;;18.02;55.73;99628.34;4980095;28;6985;-81
2023/04/23 07:27:18;;;;;;;;;;;;;;;18.10;55.39;99624.09;4979541;28;7015;-82
2023/04/23 07:29:44;;;;;;;;;;;;;;;18.17;54.80;99631.03;4975336;28;6788;-82
2023/04/23 07:32:09;;;;;;;;;;;;;;;18.23;54.67;99630.19;4995851;28;7884;-76
2023/04/23 07:34:35;;;;;;;;;;;;;;;18.28;54.71;99628.47;5000676;28;7217;-81
2023/04/23 07:37:02;;;;;;;;;;;;;;;18.35;54.45;99625.91;4961798;28;7161;-77
2023/04/23 07:39:28;;;;;;;;;;;;;;;18.40;53.80;99626.81;4979254;28;6852;-78
2023/04/23 07:41:54;;;;;;;;;;;;;;;18.48;53.97;99626.84;4981883;28;6998;-78
2023/04/23 07:44:20;;;;;;;;;;;;;;;18.56;53.71;99618.19;5013329;28;7073;-84
2023/04/23 07:46:45;;;;;;;;;;;;;;;18.66;53.46;99613.91;4993735;28;6947;-82
2023/04/23 07:49:11;;;;;;;;;;;;;;;18.70;53.32;99602.66;5010269;28;6939;-75
2023/04/23 07:51:37;;;;;;;;;;;;;;;18.79;52.84;99600.94;4980102;28;7142;-79
2023/04/23 07:54:02;;;;;;;;;;;;;;;18.85;52.71;99598.38;4974931;28;7082;-84
2023/04/23 07:56:31;;;;;;;;;;;;;;;18.89;52.06;99602.69;4985046;28;6772;-80
2023/04/23 07:58:57;;;;;;;;;;;;;;;18.95;52.21;99600.09;4981567;28;8033;-81
2023/04/23 08:01:23;;;;;;;;;;;;;;;19.00;51.97;99601.00;4998208;28;6988;-79
2023/04/23 08:03:49;;;;;;;;;;;;;;;19.08;51.72;99605.34;5008911;28;6967;-76
2023/04/23 08:06:15;;;;;;;;;;;;;;;19.12;51.45;99599.25;4975053;28;8543;-75
2023/04/23 08:08:41;;;;;;;;;;;;;;;19.18;51.59;99594.06;4965562;28;8162;-80
2023/04/23 08:11:07;;;;;;;;;;;;;;;19.26;50.56;99592.34;4955576;28;6932;-81
2023/04/23 08:13:33;;;;;;;;;;;;;;;19.32;50.73;99595.81;4978305;28;6788;-81
2023/04/23 08:15:58;;;;;;;;;;;;;;;19.38;50.60;99598.38;4974762;28;6876;-76
2023/04/23 08:18:24;;;;;;;;;;;;;;;19.44;49.51;99590.59;4979754;28;6768;-82
2023/04/23 08:20:50;;;;;;;;;;;;;;;19.51;49.79;99592.34;4981349;28;6772;-78
2023/04/23 08:23:16;;;;;;;;;;;;;;;19.61;49.55;99589.72;4975650;28;6788;-79
2023/04/23 08:25:42;;;;;;;;;;;;;;;19.70;49.64;99581.88;4977787;28;7268;-81
2023/04/23 08:28:07;;;;;;;;;;;;;;;19.83;49.08;99583.56;4999794;28;7189;-76
2023/04/23 08:30:33;;;;;;;;;;;;;;;19.97;49.22;99569.69;4976956;28;6768;-77
2023/04/23 08:32:59;;;;;;;;;;;;;;;20.09;49.11;99577.47;4994596;28;7102;-78
2023/04/23 08:35:24;;;;;;;;;;;;;;;20.23;48.76;99577.41;4980725;28;6942;-81
2023/04/23 08:37:50;;;;;;;;;;;;;;;20.40;48.65;99579.91;4980941;28;7024;-78
2023/04/23 08:40:16;;;;;;;;;;;;;;;20.55;48.04;99578.06;4978085;28;7278;-81
2023/04/23 08:42:50;;;;;;;;;;;;;;;20.70;47.93;99576.25;4976645;28;6991;-78
2023/04/23 08:45:17;;;;;;;;;;;;;;;20.84;46.93;99574.44;4994685;28;7089;-81
2023/04/23 08:47:43;;;;;;;;;;;;;;;20.94;46.94;99570.88;4991467;28;6996;-81
2023/04/23 08:50:17;;;;;;;;;;;;;;;21.08;46.79;99567.31;4958583;28;7336;-79
2023/04/23 08:52:51;;;;;;;;;;;;;;;21.21;46.28;99568.06;4988992;28;6804;-75
2023/04/23 08:55:18;;;;;;;;;;;;;;;21.34;46.14;99574.00;4976735;28;6808;-79
2023/04/23 08:57:45;;;;;;;;;;;;;;;21.49;45.24;99573.88;4969982;28;8291;-77
2023/04/23 09:00:14;;;;;;;;;;;;;;;21.63;45.40;99568.50;5017626;28;7020;-76
2023/04/23 09:02:44;;;;;;;;;;;;;;;21.76;44.42;99564.06;4980122;28;7192;-78
2023/04/23 09:05:11;;;;;;;;;;;;;;;21.88;44.25;99575.22;4978777;28;7206;-78
2023/04/23 09:07:38;;;;;;;;;;;;;;;21.99;44.29;99578.56;4983137;28;7015;-79
2023/04/23 09:10:06;;;;;;;;;;;;;;;22.18;44.62;99573.09;4982817;28;6951;-76
2023/04/23 09:12:36;;;;;;;;;;;;;;;22.40;43.88;99560.63;4997870;28;6901;-76
2023/04/23 09:15:09;;;;;;;;;;;;;;;22.69;43.67;99561.97;4979724;28;6800;-78
2023/04/23 09:17:40;;;;;;;;;;;;;;;23.08;43.37;99555.28;4980013;28;7186;-78
2023/04/23 09:20:10;;;;;;;;;;;;;;;23.33;41.28;99568.78;4969007;28;6990;-76
2023/04/23 09:22:41;;;;;;;;;;;;;;;23.32;40.48;99558.34;4967647;28;6892;-78
2023/04/23 09:25:09;;;;;;;;;;;;;;;23.23;39.46;99548.91;4979643;28;7123;-78
2023/04/23 09:27:35;;;;;;;;;;;;;;;23.33;40.37;99555.72;4986380;28;6804;-78
2023/04/23 09:30:06;;;;;;;;;;;;;;;23.49;39.76;99552.84;4967019;28;7158;-78
2023/04/23 09:32:33;;;;;;;;;;;;;;;23.60;39.43;99548.25;4981064;28;6968;-78
2023/04/23 09:35:03;;;;;;;;;;;;;;;23.71;39.39;99548.06;4996330;28;6788;-78
2023/04/23 09:37:30;;;;;;;;;;;;;;;23.76;39.05;99542.69;4983633;28;6808;-78
2023/04/23 09:39:58;;;;;;;;;;;;;;;23.68;37.69;99533.28;4965024;28;7143;-79
2023/04/23 09:42:27;;;;;;;;;;;;;;;23.59;37.79;99536.06;4967476;28;6975;-78
2023/04/23 09:44:59;;;;;;;;;;;;;;;23.49;38.04;99535.38;4993296;28;7048;-79
2023/04/23 09:47:25;;;;;;;;;;;;;;;23.38;38.45;99540.84;4978425;28;6998;-78
2023/04/23 09:49:50;;;;;;;;;;;;;;;23.35;38.38;99538.25;4982678;28;7194;-79
2023/04/23 09:52:17;;;;;;;;;;;;;;;23.48;38.58;99528.44;4957477;28;6891;-79
2023/04/23 09:54:45;;;;;;;;;;;;;;;23.68;38.03;99530.66;4970910;28;6859;-77
2023/04/23 09:57:11;;;;;;;;;;;;;;;24.04;38.18;99529.03;4977387;28;7726;-82
2023/04/23 09:59:37;;;;;;;;;;;;;;;24.34;37.05;99522.31;4975304;28;6848;-79
2023/04/23 10:02:06;;;;;;;;;;;;;;;24.65;36.76;99524.19;4979924;28;6966;-79
2023/04/23 10:04:33;;;;;;;;;;;;;;;24.93;37.18;99507.81;4972037;28;6827;-77
2023/04/23 10:07:06;;;;;;;;;;;;;;;25.27;36.75;99506.06;4977145;28;6811;-75
2023/04/23 10:09:32;;;;;;;;;;;;;;;25.77;36.43;99512.59;4971728;28;6887;-81
2023/04/23 10:12:01;;;;;;;;;;;;;;;26.32;35.87;99504.84;4996555;28;6864;-77
2023/04/23 10:14:28;;;;;;;;;;;;;;;26.52;34.62;99512.97;4984586;28;8532;-78
2023/04/23 10:17:00;;;;;;;;;;;;;;;26.46;34.72;99508.78;4975900;28;6804;-76
2023/04/23 10:19:27;;;;;;;;;;;;;;;26.48;33.88;99509.59;4975202;28;7303;-79
2023/04/23 10:22:04;;;;;;;;;;;;;;;26.38;33.74;99510.78;4976022;28;7179;-80
2023/04/23 10:24:33;;;;;;;;;;;;;;;26.43;33.74;99504.47;4993231;28;6993;-83
2023/04/23 10:27:03;;;;;;;;;;;;;;;26.45;33.57;99509.69;4959493;28;7143;-78
2023/04/23 10:29:33;;;;;;;;;;;;;;;26.39;33.71;99500.25;4980976;28;6990;-81
2023/04/23 10:32:08;;;;;;;;;;;;;;;26.16;33.79;99500.94;4971655;28;6800;-81
2023/04/23 10:34:34;;;;;;;;;;;;;;;25.84;33.77;99511.50;4991366;28;6975;-83
2023/04/23 10:37:01;;;;;;;;;;;;;;;25.48;33.80;99503.75;4960052;28;7208;-82
2023/04/23 10:39:35;;;;;;;;;;;;;;;25.07;34.08;99499.59;4977895;28;7171;-82
2023/04/23 10:42:02;;;;;;;;;;;;;;;24.64;34.36;99496.28;4979295;28;7664;-78
2023/04/23 10:44:35;;;;;;;;;;;;;;;24.24;34.69;99497.25;4981785;28;7357;-80
2023/04/23 10:47:04;;;;;;;;;;;;;;;23.89;35.35;99494.47;5009545;28;7083;-80
2023/04/23 10:49:32;;;;;;;;;;;;;;;23.61;35.72;99494.19;4974122;28;6864;-76
2023/04/23 10:52:01;;;;;;;;;;;;;;;23.39;36.28;99492.88;4976670;28;7190;-78
2023/04/23 10:54:32;;;;;;;;;;;;;;;23.24;35.98;99493.13;4971734;28;6938;-82
2023/04/23 10:57:05;;;;;;;;;;;;;;;23.08;35.81;99488.22;4973764;28;8643;-77
2023/04/23 10:59:34;;;;;;;;;;;;;;;22.99;35.83;99490.97;4975928;28;7030;-82
2023/04/23 11:02:41;;;;;;;;;;;;;;;22.95;36.20;99486.69;4975789;28;7405;-77
2023/04/23 11:05:08;;;;;;;;;;;;;;;22.97;36.96;99488.38;4975620;28;6895;-80
2023/04/23 11:07:34;;;;;;;;;;;;;;;23.02;37.24;99483.09;4991258;28;7395;-80
2023/04/23 11:10:12;;;;;;;;;;;;;;;23.09;36.82;99478.59;5007674;28;7184;-80
2023/04/23 11:12:39;;;;;;;;;;;;;;;23.15;36.31;99481.94;5014095;28;6820;-80
2023/04/23 11:15:15;;;;;;;;;;;;;;;23.30;37.24;99473.00;5010249;28;6931;-79
2023/04/23 11:17:43;;;;;;;;;;;;;;;23.52;37.00;99464.75;4995233;28;7471;-79
2023/04/23 11:20:15;;;;;;;;;;;;;;;23.70;36.77;99465.22;5013545;28;6999;-82
2023/04/23 11:22:46;;;;;;;;;;;;;;;23.77;35.90;99471.22;4981044;28;6980;-80
2023/04/23 11:25:27;;;;;;;;;;;;;;;23.78;35.76;99457.22;4977932;28;7002;-80
2023/04/23 11:27:57;;;;;;;;;;;;;;;23.80;35.09;99455.44;4974046;28;6917;-78
2023/04/23 11:30:27;;;;;;;;;;;;;;;23.81;35.39;99446.69;4995709;28;7376;-80
2023/04/23 11:32:55;;;;;;;;;;;;;;;23.83;35.57;99444.91;4998593;28;6791;-80
2023/04/23 11:35:27;;;;;;;;;;;;;;;23.86;35.19;99444.84;4976654;28;6891;-76
2023/04/23 11:37:53;;;;;;;;;;;;;;;23.92;34.84;99434.22;4974284;28;6811;-77
2023/04/23 11:40:20;;;;;;;;;;;;;;;24.06;34.92;99440.94;5010901;28;7793;-76
2023/04/23 11:42:50;;;;;;;;;;;;;;;24.32;35.38;99426.38;4975576;28;6792;-77
2023/04/23 11:45:28;;;;;;;;;;;;;;;24.82;35.08;99423.41;4979401;28;7070;-80
2023/04/23 11:47:57;;;;;;;;;;;;;;;25.42;34.31;99412.16;4978338;28;7105;-78
2023/04/23 11:50:31;;;;;;;;;;;;;;;25.88;34.13;99397.69;5011957;28;7325;-78
2023/04/23 11:53:05;;;;;;;;;;;;;;;26.26;33.43;99391.25;4976365;28;6808;-76
2023/04/23 11:55:30;;;;;;;;;;;;;;;26.55;32.74;99390.28;4974797;28;6822;-80
2023/04/23 11:57:57;;;;;;;;;;;;;;;26.73;32.58;99378.25;4973831;28;6780;-78
2023/04/23 12:00:25;;;;;;;;;;;;;;;26.83;31.81;99380.53;4962299;28;6996;-78
2023/04/23 12:02:58;;;;;;;;;;;;;;;26.75;31.82;99373.81;4981463;28;7465;-79
2023/04/23 12:05:31;;;;;;;;;;;;;;;26.58;31.76;99370.91;4961209;28;6974;-76
2023/04/23 12:08:18;;;;;;;;;;;;;;;26.39;31.70;99373.31;4981751;28;7013;-79
2023/04/23 12:10:52;;;;;;;;;;;;;;;26.13;31.90;99362.75;4994718;28;6958;-76
2023/04/23 12:13:26;;;;;;;;;;;;;;;25.87;32.02;99361.81;4979048;28;7885;-79
2023/04/23 12:15:55;;;;;;;;;;;;;;;25.63;31.46;99356.44;4983379;28;6994;-77
2023/04/23 12:18:38;;;;;;;;;;;;;;;25.71;31.74;99347.50;5009884;28;7129;-78
2023/04/23 12:21:05;;;;;;;;;;;;;;;26.05;30.93;99347.25;4998818;28;6982;-76
2023/04/23 12:23:32;;;;;;;;;;;;;;;26.33;29.70;99337.59;4982714;28;6792;-76
2023/04/23 12:25:58;;;;;;;;;;;;;;;26.53;30.03;99349.19;4994993;28;6893;-75
2023/04/23 12:28:24;;;;;;;;;;;;;;;26.73;30.22;99332.72;4990753;28;6884;-79
2023/04/23 12:30:50;;;;;;;;;;;;;;;26.85;29.84;99332.28;4976370;28;7372;-80
2023/04/23 12:33:17;;;;;;;;;;;;;;;26.85;29.28;99328.81;4975561;28;6930;-78
2023/04/23 12:35:48;;;;;;;;;;;;;;;26.70;29.14;99328.44;4990705;28;6780;-80
2023/04/23 12:38:28;;;;;;;;;;;;;;;26.50;29.61;99318.63;4981654;28;6991;-78
2023/04/23 12:40:59;;;;;;;;;;;;;;;26.29;29.81;99315.84;4975750;28;6788;-81
2023/04/23 12:43:26;;;;;;;;;;;;;;;26.15;30.06;99320.69;4976146;28;6792;-78
2023/04/23 12:45:53;;;;;;;;;;;;;;;26.00;30.32;99311.56;5010785;28;6839;-77
2023/04/23 12:48:19;;;;;;;;;;;;;;;25.87;30.19;99303.25;4968569;28;7366;-80
2023/04/23 12:50:46;;;;;;;;;;;;;;;25.72;30.17;99305.44;4959602;28;6984;-75
2023/04/23 12:53:12;;;;;;;;;;;;;;;25.61;30.48;99297.06;4975071;28;7218;-79
2023/04/23 12:55:38;;;;;;;;;;;;;;;25.58;30.95;99295.38;4972875;28;7298;-78
2023/04/23 12:58:04;;;;;;;;;;;;;;;25.62;31.09;99291.78;4980816;28;6768;-77
2023/04/23 13:00:30;;;;;;;;;;;;;;;25.64;31.17;99287.31;4985154;28;7465;-79